Time;durP1;ratioP1;P1;durP2;ratioP2;P2;SDS_P1;SDS_P2;PMS_P1;PMS_P2;Temp;Humidity;BMP_temperature;BMP_pressure;BME280_temperature;BME280_humidity;BME280_pressure;Samples;Min_cycle;Max_cycle;Signal;HPM_P1;HPM_P2
2021/04/23 04:18:28;614301.00;2.05;1058.92;0.00;0.00;0.62;;;;;12.40;1.00;;;;;;2245850;61;1218;-89
2021/04/23 04:20:55;413270.00;1.38;712.62;21342.00;0.07;37.59;;;;;12.70;1.00;;;;;;2244129;61;1014;-90
2021/04/23 04:23:23;425425.00;1.42;733.52;0.00;0.00;0.62;;;;;13.10;1.00;;;;;;2235667;61;1254;-90
2021/04/23 04:25:57;361900.00;1.21;624.31;0.00;0.00;0.62;;;;;13.30;1.00;;;;;;2235757;61;1794;-90
2021/04/23 04:28:24;428581.00;1.43;738.95;17143.00;0.06;30.32;;;;;13.50;1.00;;;;;;2235656;61;1198;-89
2021/04/23 04:30:51;562505.00;1.88;969.52;23753.00;0.08;41.77;;;;;13.50;1.00;;;;;;2235618;61;1994;-88
2021/04/23 04:33:18;553654.00;1.85;954.26;0.00;0.00;0.62;;;;;13.30;1.00;;;;;;2235613;61;1440;-89
2021/04/23 04:35:49;400888.00;1.34;691.33;0.00;0.00;0.62;;;;;13.40;1.00;;;;;;2235638;61;1160;-89
2021/04/23 04:38:25;508774.00;1.70;876.93;0.00;0.00;0.62;;;;;13.70;1.00;;;;;;2227897;62;1025;-89
2021/04/23 04:40:55;522430.00;1.74;900.45;0.00;0.00;0.62;;;;;14.10;1.00;;;;;;2231002;61;1007;-90
2021/04/23 04:46:06;458819.00;1.53;790.95;88088.00;0.29;153.01;;;;;14.10;1.00;;;;;;2239540;61;1028;-89
2021/04/23 04:48:35;694110.00;2.31;1197.03;164255.00;0.55;284.37;;;;;14.10;1.00;;;;;;2235589;62;2006;-91
2021/04/23 04:51:19;119268048.00;397.56;68725720.00;89259.00;0.30;155.03;;;;;14.30;1.00;;;;;;2235065;62;980;-90
2021/04/23 04:53:46;831808.00;2.77;1436.65;87438.00;0.29;151.88;;;;;14.20;1.00;;;;;;2227555;62;1345;-90
2021/04/23 04:56:29;997211.00;3.32;1727.53;94173.00;0.31;163.51;;;;;14.10;1.00;;;;;;2230809;62;1656;-90
2021/04/23 04:59:46;;;;;;;;;;;;;;;;;;;;;
2021/04/23 05:23:19;1244848.00;4.15;2171.52;85074.00;0.28;147.80;;;;;12.00;1.00;;;;;;2246170;61;1394;-87
2021/04/23 10:14:23;709983.00;2.37;1224.55;85168.00;0.28;147.96;;;;;16.80;1.00;;;;;;2242219;61;1283;-91
2021/04/23 10:42:36;265995.00;0.89;459.46;0.00;0.00;0.62;;;;;16.20;1.00;;;;;;1155286;41;3363;-87
2021/04/23 10:50:43;1127066.00;3.76;1958.90;75608.00;0.25;131.45;;;;;15.60;1.00;;;;;;2300023;56;3877;-91
2021/04/23 11:09:16;820707.00;2.74;1417.26;36596.00;0.12;64.00;;;;;16.10;1.00;;;;;;2246474;62;1888;-92
2021/04/23 11:11:44;548593.00;1.83;945.53;75657.00;0.25;131.53;;;;;16.30;1.00;;;;;;2235701;62;1343;-91
2021/04/23 11:21:40;371706.00;1.24;641.17;0.00;0.00;0.62;;;;;16.50;1.00;;;;;;2242061;61;1407;-91
2021/04/23 12:22:21;1046781.00;3.49;1815.51;22061.00;0.07;38.84;;;;;17.40;1.00;;;;;;2245428;61;1428;-88
2021/04/23 12:28:33;449740.00;1.50;775.34;51057.00;0.17;89.01;;;;;17.60;1.00;;;;;;2243946;61;722;-89
2021/04/23 12:31:08;153272.00;0.51;265.45;0.00;0.00;0.62;;;;;18.10;1.00;;;;;;2244038;61;1990;-89
2021/04/23 12:33:44;539134.00;1.80;929.23;68986.00;0.23;120.01;;;;;19.00;1.00;;;;;;2244042;61;1326;-90
2021/04/23 12:36:17;356986.00;1.19;615.87;84035.00;0.28;146.01;;;;;18.90;1.00;;;;;;2244050;61;1698;-90
2021/04/23 12:39:14;402163.00;1.34;693.52;67844.00;0.23;118.03;;;;;18.60;1.00;;;;;;2240356;61;1051;-91
2021/04/23 12:41:42;369949.00;1.23;638.15;0.00;0.00;0.62;;;;;18.00;1.00;;;;;;2235579;62;1393;-89
2021/04/23 12:44:17;306151.00;1.02;528.49;0.00;0.00;0.62;;;;;17.90;1.00;;;;;;2235768;62;935;-90
2021/04/23 12:46:47;446614.00;1.49;769.96;42628.00;0.14;74.43;;;;;18.00;1.00;;;;;;2235688;62;981;-89
2021/04/23 12:49:19;163837.00;0.55;283.65;0.00;0.00;0.62;;;;;18.10;1.00;;;;;;2235615;62;2027;-90
2021/04/23 12:51:49;856345.00;2.85;1479.57;264690.00;0.88;457.21;;;;;18.10;1.00;;;;;;2232378;62;1457;-90
2021/04/23 12:54:19;743231.00;2.48;1282.29;122691.00;0.41;212.72;;;;;18.60;1.00;;;;;;2232397;62;983;-88
2021/04/23 12:56:54;344984.00;1.15;595.24;0.00;0.00;0.62;;;;;18.90;1.00;;;;;;2235667;62;986;-88
2021/04/23 12:59:41;231595.00;0.77;400.29;0.00;0.00;0.62;;;;;18.50;1.00;;;;;;2232422;62;1005;-90
2021/04/23 13:02:31;255420.00;0.85;441.27;0.00;0.00;0.62;;;;;17.90;1.00;;;;;;2227718;62;1425;-89
2021/04/23 13:05:07;223650.00;0.75;386.62;0.00;0.00;0.62;;;;;17.80;1.00;;;;;;2227940;62;1044;-90
2021/04/23 13:07:35;330797.00;1.10;570.86;0.00;0.00;0.62;;;;;17.60;1.00;;;;;;2239576;61;1009;-88
2021/04/23 13:10:16;271098.00;0.90;468.23;0.00;0.00;0.62;;;;;17.80;1.00;;;;;;2239523;61;1986;-91
2021/04/23 13:12:43;122206.00;0.41;211.89;0.00;0.00;0.62;;;;;18.40;1.00;;;;;;2239490;61;1540;-88
2021/04/23 13:17:41;706306.00;2.35;1218.18;0.00;0.00;0.62;;;;;17.80;1.00;;;;;;2245347;61;1302;-88
2021/04/23 13:20:18;523629.00;1.75;902.52;11707.00;0.04;20.91;;;;;18.20;1.00;;;;;;2243916;61;941;-89
2021/04/23 13:22:49;243307.00;0.81;420.44;0.00;0.00;0.62;;;;;18.10;1.00;;;;;;2239431;61;1279;-91
2021/04/23 13:27:50;547013.00;1.82;942.81;0.00;0.00;0.62;;;;;18.40;1.00;;;;;;2245784;61;1424;-88
2021/04/23 13:30:45;569090.00;1.90;980.88;33245.00;0.11;58.20;;;;;18.30;1.00;;;;;;2244060;61;2011;-89
2021/04/23 13:33:19;422695.00;1.41;728.82;41133.00;0.14;71.85;;;;;18.80;1.00;;;;;;2243120;61;1530;-89
2021/04/23 13:35:48;343352.00;1.14;592.43;0.00;0.00;0.62;;;;;18.50;1.00;;;;;;2244541;61;1481;-91
2021/04/23 13:38:31;175182.00;0.58;303.19;0.00;0.00;0.62;;;;;18.50;1.00;;;;;;2244571;61;987;-89
2021/04/23 13:41:11;82314.00;0.27;143.03;0.00;0.00;0.62;;;;;18.90;1.00;;;;;;2244575;61;1130;-89
2021/04/23 13:43:44;291460.00;0.97;503.24;0.00;0.00;0.62;;;;;19.30;1.00;;;;;;2244550;61;1227;-90
2021/04/23 13:46:12;247030.00;0.82;426.84;0.00;0.00;0.62;;;;;19.40;1.00;;;;;;2244494;61;1549;-88
2021/04/23 13:48:42;422384.00;1.41;728.29;0.00;0.00;0.62;;;;;19.40;1.00;;;;;;2244574;61;1680;-91
2021/04/23 13:51:24;170184.00;0.57;294.58;0.00;0.00;0.62;;;;;19.30;1.00;;;;;;2244619;61;2001;-89
2021/04/23 13:53:55;511458.00;1.70;881.55;0.00;0.00;0.62;;;;;19.30;1.00;;;;;;2244388;61;1554;-90
2021/04/23 13:56:24;351284.00;1.17;606.07;105156.00;0.35;182.47;;;;;19.10;1.00;;;;;;2244110;61;1536;-89
2021/04/23 13:58:57;208089.00;0.69;359.85;0.00;0.00;0.62;;;;;19.30;1.00;;;;;;2244415;61;1105;-89
2021/04/23 14:01:43;321017.00;1.07;554.05;0.00;0.00;0.62;;;;;18.80;1.00;;;;;;2244461;61;1441;-90
2021/04/23 14:04:12;226299.00;0.75;391.18;0.00;0.00;0.62;;;;;18.50;1.00;;;;;;2244458;61;1069;-89
2021/04/23 14:06:39;290537.00;0.97;501.65;57358.00;0.19;99.91;;;;;18.70;1.00;;;;;;2244405;61;1639;-89
2021/04/23 14:09:08;575998.00;1.92;992.79;36961.00;0.12;64.63;;;;;18.90;1.00;;;;;;2244416;61;1681;-89
2021/04/23 14:11:36;261086.00;0.87;451.02;0.00;0.00;0.62;;;;;19.40;1.00;;;;;;2244377;61;1536;-89
2021/04/23 14:14:06;134682.00;0.45;233.40;0.00;0.00;0.62;;;;;19.50;1.00;;;;;;2244495;61;1105;-89
2021/04/23 14:16:34;210445.00;0.70;363.90;51196.00;0.17;89.25;;;;;19.30;1.00;;;;;;2244470;61;936;-89
2021/04/23 14:19:01;88429.00;0.29;153.59;0.00;0.00;0.62;;;;;19.10;1.00;;;;;;2244405;61;997;-88
2021/04/23 14:21:29;349312.00;1.16;602.68;0.00;0.00;0.62;;;;;18.90;1.00;;;;;;2244438;61;1385;-89
2021/04/23 14:23:56;105936.00;0.35;183.82;0.00;0.00;0.62;;;;;19.20;1.00;;;;;;2244433;61;1023;-89
2021/04/23 14:26:24;109555.00;0.37;190.06;0.00;0.00;0.62;;;;;19.30;1.00;;;;;;2244314;61;1131;-87
2021/04/23 16:10:20;615584.00;2.05;1061.14;0.00;0.00;0.62;;;;;18.30;1.00;;;;;;2246206;62;1881;-93
2021/04/23 16:17:52;524505.00;1.75;904.03;84384.00;0.28;146.61;;;;;18.40;1.00;;;;;;2245887;61;1395;-91
2021/04/23 16:20:20;710454.00;2.37;1225.37;179170.00;0.60;310.06;;;;;18.50;1.00;;;;;;2240419;61;952;-91
2021/04/23 16:22:47;360077.00;1.20;621.18;74371.00;0.25;129.31;;;;;18.50;1.00;;;;;;2237164;61;1275;-90
2021/04/23 16:25:14;660202.00;2.20;1138.29;209443.00;0.70;362.18;;;;;18.60;1.00;;;;;;2240510;61;1018;-89
2021/04/23 16:27:41;378150.00;1.26;652.25;87674.00;0.29;152.29;;;;;18.30;1.00;;;;;;2246918;61;957;-91
2021/04/23 16:30:13;404448.00;1.35;697.45;74103.00;0.25;128.85;;;;;18.30;1.00;;;;;;2240420;61;1919;-90
2021/04/23 16:35:09;638851.00;2.13;1101.35;200924.00;0.67;347.51;;;;;18.20;1.00;;;;;;2245773;61;1826;-91
2021/04/23 16:37:36;336677.00;1.12;580.96;80027.00;0.27;139.08;;;;;18.00;1.00;;;;;;2237197;61;960;-91
2021/04/23 16:40:03;325192.00;1.08;561.22;74800.00;0.25;130.05;;;;;17.90;1.00;;;;;;2240379;61;1018;-91
2021/04/23 16:42:30;562165.00;1.87;968.93;119389.00;0.40;207.03;;;;;18.00;1.00;;;;;;2244035;61;1689;-90
2021/04/23 16:44:57;319228.00;1.06;550.97;81937.00;0.27;142.38;;;;;18.10;1.00;;;;;;2244074;61;1040;-91
2021/04/23 16:47:24;390692.00;1.30;673.80;72095.00;0.24;125.38;;;;;18.30;1.00;;;;;;2239534;61;995;-90
2021/04/23 16:49:50;855026.00;2.85;1477.26;176814.00;0.59;306.00;;;;;18.20;1.00;;;;;;2239614;61;1913;-91
2021/04/23 16:52:16;533886.00;1.78;920.19;105504.00;0.35;183.07;;;;;18.10;1.00;;;;;;2235590;62;1406;-90
2021/04/23 16:54:43;493298.00;1.64;850.29;76704.00;0.26;133.34;;;;;17.90;1.00;;;;;;2235696;62;1032;-89
2021/04/23 16:57:11;420505.00;1.40;725.06;83917.00;0.28;145.80;;;;;17.60;1.00;;;;;;2235708;62;1032;-91
2021/04/23 16:59:37;674002.00;2.25;1162.18;142092.00;0.47;246.18;;;;;17.70;1.00;;;;;;2224006;62;986;-90
2021/04/23 17:02:05;465758.00;1.55;802.89;81164.00;0.27;141.05;;;;;17.60;1.00;;;;;;2223998;62;1307;-90
2021/04/23 17:04:31;693689.00;2.31;1196.30;202698.00;0.68;350.57;;;;;17.70;1.00;;;;;;2220511;62;947;-90
2021/04/23 17:06:58;370973.00;1.24;639.91;81629.00;0.27;141.85;;;;;17.60;1.00;;;;;;2224712;62;1043;-88
2021/04/23 17:09:24;245173.00;0.82;423.65;75513.00;0.25;131.29;;;;;17.60;1.00;;;;;;2225582;62;2005;-91
2021/04/23 17:11:54;375188.00;1.25;647.15;74756.00;0.25;129.98;;;;;17.60;1.00;;;;;;2232385;62;1409;-91
2021/04/23 17:14:20;541022.00;1.80;932.48;180674.00;0.60;312.65;;;;;17.60;1.00;;;;;;2224598;62;987;-91
2021/04/23 17:16:47;348027.00;1.16;600.47;98894.00;0.33;171.66;;;;;17.40;1.00;;;;;;2217837;62;1016;-92
2021/04/23 17:19:14;226591.00;0.76;391.68;75006.00;0.25;130.41;;;;;17.10;1.00;;;;;;2224626;62;1748;-91
2021/04/23 17:21:41;290323.00;0.97;501.28;82288.00;0.27;142.99;;;;;17.30;1.00;;;;;;2221116;62;1311;-89
2021/04/23 17:24:11;400011.00;1.33;689.82;71326.00;0.24;124.05;;;;;17.60;1.00;;;;;;2224694;62;1078;-89
2021/04/23 17:26:38;407267.00;1.36;702.30;83444.00;0.28;144.99;;;;;17.70;1.00;;;;;;2224681;62;946;-90
2021/04/23 17:29:07;682897.00;2.28;1177.59;200792.00;0.67;347.29;;;;;17.50;1.00;;;;;;2224629;62;1044;-90
2021/04/23 17:31:34;388405.00;1.29;669.87;66092.00;0.22;115.01;;;;;17.40;1.00;;;;;;2225812;62;1925;-92
2021/04/23 17:34:00;637298.00;2.12;1098.67;80012.00;0.27;139.06;;;;;17.40;1.00;;;;;;2233544;61;1020;-92
2021/04/23 17:36:28;409983.00;1.37;706.97;96079.00;0.32;166.80;;;;;17.60;1.00;;;;;;2240152;61;943;-90
2021/04/23 17:38:54;317554.00;1.06;548.09;79728.00;0.27;138.57;;;;;17.70;1.00;;;;;;2240939;61;963;-91
2021/04/23 17:41:21;629303.00;2.10;1084.84;58881.00;0.20;102.54;;;;;17.80;1.00;;;;;;2244606;61;1326;-91
2021/04/23 17:43:47;420118.00;1.40;724.39;79913.00;0.27;138.89;;;;;18.00;1.00;;;;;;2244565;61;1035;-90
2021/04/23 17:46:14;576855.00;1.92;994.27;60211.00;0.20;104.84;;;;;17.70;1.00;;;;;;2244603;61;952;-89
2021/04/23 17:48:43;340241.00;1.13;587.09;75644.00;0.25;131.51;;;;;17.70;1.00;;;;;;2244633;61;927;-91
2021/04/23 17:51:12;456739.00;1.52;787.37;74104.00;0.25;128.85;;;;;17.60;1.00;;;;;;2244543;61;2007;-90
2021/04/23 17:53:40;610956.00;2.04;1053.14;99345.00;0.33;172.44;;;;;17.30;1.00;;;;;;2244458;61;1024;-89
2021/04/23 17:56:07;585811.00;1.95;1009.73;71965.00;0.24;125.16;;;;;17.20;1.00;;;;;;2244179;61;1139;-89
2021/04/23 17:58:33;399340.00;1.33;688.67;92759.00;0.31;161.07;;;;;17.20;1.00;;;;;;2244627;61;1013;-90
2021/04/23 18:01:00;355820.00;1.19;613.86;78188.00;0.26;135.91;;;;;17.50;1.00;;;;;;2244515;61;1593;-91
2021/04/23 18:03:26;673003.00;2.24;1160.45;88398.00;0.29;153.54;;;;;17.40;1.00;;;;;;2244476;61;1631;-92
2021/04/23 18:51:38;612116.00;2.04;1055.15;0.00;0.00;0.62;;;;;16.30;1.00;;;;;;2249829;61;1895;-90
2021/04/23 18:54:05;392325.00;1.31;676.61;0.00;0.00;0.62;;;;;16.00;1.00;;;;;;2235599;61;1145;-90
2021/04/23 18:56:32;315582.00;1.05;544.70;0.00;0.00;0.62;;;;;16.20;1.00;;;;;;2236051;61;1735;-90
2021/04/23 18:58:58;205797.00;0.69;355.90;0.00;0.00;0.62;;;;;16.30;1.00;;;;;;2236083;61;1038;-91
2021/04/23 19:01:25;446593.00;1.49;769.92;29711.00;0.10;52.08;;;;;16.40;1.00;;;;;;2235987;61;1308;-92
2021/04/23 19:03:52;312901.00;1.04;540.10;0.00;0.00;0.62;;;;;16.70;1.00;;;;;;2235965;61;1765;-89
2021/04/23 19:06:19;323190.00;1.08;557.78;0.00;0.00;0.62;;;;;16.80;1.00;;;;;;2236098;61;1887;-90
2021/04/23 19:08:53;365039.00;1.22;629.71;28782.00;0.10;50.47;;;;;16.90;1.00;;;;;;2236156;61;1536;-91
2021/04/23 19:11:20;345726.00;1.15;596.52;60274.00;0.20;104.95;;;;;17.00;1.00;;;;;;2236079;61;2001;-91
2021/04/23 19:13:46;155097.00;0.52;268.59;0.00;0.00;0.62;;;;;17.10;1.00;;;;;;2236096;61;1094;-91
2021/04/23 19:16:13;216368.00;0.72;374.09;0.00;0.00;0.62;;;;;17.10;1.00;;;;;;2236072;61;1143;-91
2021/04/23 19:18:40;385809.00;1.29;665.41;0.00;0.00;0.62;;;;;17.10;1.00;;;;;;2235964;61;1113;-91
2021/04/23 19:21:08;189347.00;0.63;327.58;0.00;0.00;0.62;;;;;17.20;1.00;;;;;;2236036;61;1153;-91
2021/04/23 19:23:34;325382.00;1.08;561.55;0.00;0.00;0.62;;;;;17.20;1.00;;;;;;2235911;61;1728;-90
2021/04/23 19:26:02;320138.00;1.07;552.54;0.00;0.00;0.62;;;;;17.10;1.00;;;;;;2236027;61;1111;-89
2021/04/23 19:28:29;209850.00;0.70;362.88;0.00;0.00;0.62;;;;;17.00;1.00;;;;;;2235876;61;1750;-91
2021/04/23 19:30:55;301087.00;1.00;519.79;0.00;0.00;0.62;;;;;17.00;1.00;;;;;;2236000;61;1919;-90
2021/04/23 19:33:22;490424.00;1.63;845.34;9325.00;0.03;16.78;;;;;17.00;1.00;;;;;;2236085;61;1331;-90
2021/04/23 19:35:48;537864.00;1.79;927.04;80727.00;0.27;140.29;;;;;17.00;1.00;;;;;;2236044;61;1136;-90
2021/04/23 19:38:15;193332.00;0.64;334.45;0.00;0.00;0.62;;;;;16.90;1.00;;;;;;2236049;61;953;-90
2021/04/23 19:40:41;380461.00;1.27;656.22;0.00;0.00;0.62;;;;;16.80;1.00;;;;;;2235908;61;1589;-89
2021/04/23 19:43:09;383118.00;1.28;660.78;0.00;0.00;0.62;;;;;16.60;1.00;;;;;;2235932;61;1410;-91
2021/04/23 19:45:36;344661.00;1.15;594.68;28870.00;0.10;50.63;;;;;16.70;1.00;;;;;;2235925;61;1707;-90
2021/04/23 19:48:04;120425.00;0.40;208.82;0.00;0.00;0.62;;;;;16.50;1.00;;;;;;2235987;61;1725;-89
2021/04/23 19:50:30;361082.00;1.20;622.91;0.00;0.00;0.62;;;;;16.70;1.00;;;;;;2235889;61;2007;-90
2021/04/23 19:52:57;142488.00;0.47;246.86;0.00;0.00;0.62;;;;;17.00;1.00;;;;;;2235981;61;1320;-90
2021/04/23 19:55:23;333515.00;1.11;575.53;0.00;0.00;0.62;;;;;17.40;1.00;;;;;;2235968;61;1725;-90
2021/04/23 19:57:50;116672408.00;388.91;64331820.00;0.00;0.00;0.62;;;;;17.60;1.00;;;;;;2235983;61;1108;-89
2021/04/23 20:00:19;339261.00;1.13;585.40;54315.00;0.18;94.65;;;;;17.70;1.00;;;;;;2235917;61;1127;-89
2021/04/23 20:02:48;307916.00;1.03;531.53;18582.00;0.06;32.81;;;;;17.80;1.00;;;;;;2238843;61;1595;-90
2021/04/23 20:05:15;152049.00;0.51;263.34;0.00;0.00;0.62;;;;;17.90;1.00;;;;;;2248080;61;977;-91
2021/04/23 20:07:41;340338.00;1.13;587.25;15293.00;0.05;27.12;;;;;18.00;1.00;;;;;;2248054;61;1619;-89
2021/04/23 20:10:09;495902.00;1.65;854.77;98892.00;0.33;171.66;;;;;18.00;1.00;;;;;;2248187;61;1990;-91
2021/04/23 20:12:35;256663.00;0.86;443.41;34754.00;0.12;60.81;;;;;17.80;1.00;;;;;;2248132;61;1384;-91
2021/04/23 20:15:02;181505.00;0.61;314.08;0.00;0.00;0.62;;;;;17.80;1.00;;;;;;2248184;61;1631;-90
2021/04/23 20:17:29;188179.00;0.63;325.57;0.00;0.00;0.62;;;;;17.80;1.00;;;;;;2248087;61;1716;-89
2021/04/23 20:19:56;300140.00;1.00;518.16;0.00;0.00;0.62;;;;;17.70;1.00;;;;;;2248103;61;987;-89
2021/04/23 20:22:23;157943.00;0.53;273.50;0.00;0.00;0.62;;;;;17.60;1.00;;;;;;2248144;61;1382;-91
2021/04/23 20:45:31;492459.00;1.64;848.84;0.00;0.00;0.62;;;;;17.50;1.00;;;;;;2246722;61;1226;-91
2021/04/23 20:47:58;477003.00;1.59;822.24;0.00;0.00;0.62;;;;;17.70;1.00;;;;;;2244913;61;998;-92
2021/04/23 20:50:24;413167.00;1.38;712.44;0.00;0.00;0.62;;;;;17.80;1.00;;;;;;2244687;61;1961;-90
2021/04/23 20:52:51;292770.00;0.98;505.49;0.00;0.00;0.62;;;;;17.70;1.00;;;;;;2244797;61;1448;-89
2021/04/23 20:55:17;439749.00;1.47;758.15;0.00;0.00;0.62;;;;;17.80;1.00;;;;;;2244761;61;1748;-91
2021/04/23 20:57:44;700752.00;2.34;1208.54;0.00;0.00;0.62;;;;;17.80;1.00;;;;;;2244866;61;998;-91
2021/04/23 21:00:13;451219.00;1.50;777.88;0.00;0.00;0.62;;;;;17.70;1.00;;;;;;2244810;61;1105;-90
2021/04/23 21:02:42;904806.00;3.02;1564.56;0.00;0.00;0.62;;;;;17.50;1.00;;;;;;2244778;61;1275;-90
2021/04/23 21:05:10;802412.00;2.67;1385.33;0.00;0.00;0.62;;;;;17.50;1.00;;;;;;2244725;61;1615;-89
2021/04/23 21:07:37;588210.00;1.96;1013.87;0.00;0.00;0.62;;;;;17.40;1.00;;;;;;2244758;61;927;-89
2021/04/23 21:10:04;610431.00;2.03;1052.23;28759.00;0.10;50.43;;;;;17.50;1.00;;;;;;2244720;61;1989;-90
2021/04/23 21:12:30;525011.00;1.75;904.90;0.00;0.00;0.62;;;;;17.40;1.00;;;;;;2244748;61;1725;-90
2021/04/23 21:14:57;732340.00;2.44;1263.37;0.00;0.00;0.62;;;;;17.30;1.00;;;;;;2244790;61;1140;-90
2021/04/23 21:17:24;689358.00;2.30;1188.79;0.00;0.00;0.62;;;;;17.30;1.00;;;;;;2244634;61;1719;-89
2021/04/23 21:19:51;549125.00;1.83;946.45;0.00;0.00;0.62;;;;;17.30;1.00;;;;;;2244743;61;1615;-89
2021/04/23 21:22:18;709599.00;2.37;1223.89;40993.00;0.14;71.61;;;;;17.20;1.00;;;;;;2244736;61;1417;-90
2021/04/23 21:24:44;588078.00;1.96;1013.64;0.00;0.00;0.62;;;;;17.20;1.00;;;;;;2244650;61;1690;-90
2021/04/23 21:27:11;536306.00;1.79;924.36;0.00;0.00;0.62;;;;;17.00;1.00;;;;;;2244655;61;1804;-91
2021/04/23 21:37:52;630886.00;2.10;1087.58;0.00;0.00;0.62;;;;;16.80;1.00;;;;;;2246564;61;1187;-91
2021/04/23 21:40:20;216892.00;0.72;375.00;0.00;0.00;0.62;;;;;16.80;1.00;;;;;;2228373;62;1031;-91
2021/04/23 21:42:46;345035.00;1.15;595.33;0.00;0.00;0.62;;;;;16.80;1.00;;;;;;2228398;62;1790;-88
2021/04/23 21:45:14;321368.00;1.07;554.65;57441.00;0.19;100.05;;;;;16.80;1.00;;;;;;2228516;62;1027;-89
2021/04/23 21:47:42;297897.00;0.99;514.30;0.00;0.00;0.62;;;;;16.70;1.00;;;;;;2228433;62;1758;-90
2021/04/23 21:50:13;186599.00;0.62;322.85;0.00;0.00;0.62;;;;;16.50;1.00;;;;;;2228459;62;1994;-91
2021/04/23 21:52:40;433675.00;1.45;747.71;13969.00;0.05;24.82;;;;;16.60;1.00;;;;;;2228433;62;1785;-90
2021/04/23 21:55:08;280980.00;0.94;485.22;0.00;0.00;0.62;;;;;16.70;1.00;;;;;;2228432;62;1845;-91
2021/04/23 21:57:36;419398.00;1.40;723.16;0.00;0.00;0.62;;;;;16.80;1.00;;;;;;2230525;61;1776;-90
2021/04/23 22:00:08;264210.00;0.88;456.39;0.00;0.00;0.62;;;;;16.80;1.00;;;;;;2240129;61;1306;-90
2021/04/23 22:02:34;302954.00;1.01;523.00;0.00;0.00;0.62;;;;;16.80;1.00;;;;;;2240200;61;1690;-89
2021/04/23 22:05:01;280516.00;0.94;484.42;12562.00;0.04;22.39;;;;;16.80;1.00;;;;;;2240172;61;1676;-90
2021/04/23 22:07:27;690920.00;2.30;1191.50;52095.00;0.17;90.81;;;;;16.90;1.00;;;;;;2240187;61;1651;-90
2021/04/23 22:09:54;396809.00;1.32;684.32;63049.00;0.21;109.75;;;;;16.90;1.00;;;;;;2240189;61;1994;-90
2021/04/23 22:12:21;161154.00;0.54;279.03;0.00;0.00;0.62;;;;;16.70;1.00;;;;;;2244340;61;1679;-90
2021/04/23 23:49:59;888841.00;2.96;1536.53;0.00;0.00;0.62;;;;;15.50;1.00;;;;;;2246620;62;1016;-93
2021/04/23 23:57:34;421595.00;1.41;726.93;0.00;0.00;0.62;;;;;15.40;1.00;;;;;;2246564;62;1319;-91
